createdAt,value
2022-12-14T00:01:49.567Z,89.23
2022-12-14T00:04:17.321Z,88.52
2022-12-14T00:06:44.702Z,89.34
2022-12-14T00:09:12.031Z,89.05
2022-12-14T00:11:39.071Z,88.16
2022-12-14T00:14:06.353Z,89.09
2022-12-14T00:16:35.376Z,88.09
2022-12-14T00:19:05.485Z,88.45
2022-12-14T00:21:33.405Z,88.91
2022-12-14T00:24:00.679Z,88.15
2022-12-14T00:26:32.480Z,88.43
2022-12-14T00:29:01.772Z,88.36
2022-12-14T00:31:31.433Z,88.56
2022-12-14T00:33:59.051Z,88.76
2022-12-14T00:36:28.138Z,88.41
2022-12-14T00:38:55.319Z,89.14
2022-12-14T00:41:22.600Z,88.98
2022-12-14T00:43:50.031Z,88.89
2022-12-14T00:46:17.994Z,88.82
2022-12-14T00:48:45.525Z,88.31
2022-12-14T00:51:14.977Z,88.98
2022-12-14T00:53:44.320Z,88.34
2022-12-14T00:56:11.639Z,88.62
2022-12-14T00:58:38.726Z,88.63
2022-12-14T01:01:12.836Z,89.09
2022-12-14T01:03:40.436Z,88.08
2022-12-14T01:06:23.017Z,88.68
2022-12-14T01:08:50.122Z,88.13
2022-12-14T01:11:17.318Z,88.42
2022-12-14T01:13:44.534Z,89.04
2022-12-14T01:16:16.666Z,88.92
2022-12-14T01:18:44.133Z,89.04
2022-12-14T01:21:18.012Z,89.12
2022-12-14T01:23:46.825Z,89.25
2022-12-14T01:26:16.770Z,88.62
2022-12-14T01:28:45.859Z,89.18
2022-12-14T01:31:17.176Z,88.53
2022-12-14T01:33:45.307Z,88.21
2022-12-14T01:36:21.987Z,89.26
2022-12-14T01:39:00.788Z,88.11
2022-12-14T01:41:41.140Z,89.12
2022-12-14T01:44:07.989Z,89.52
2022-12-14T01:46:49.085Z,89.14
2022-12-14T01:49:48.793Z,88.96
2022-12-14T01:52:31.258Z,88.59
2022-12-14T01:55:03.157Z,88.29
2022-12-14T01:58:03.603Z,88.74
2022-12-14T02:00:31.274Z,88.51
2022-12-14T02:03:14.514Z,88.68
2022-12-14T02:05:48.101Z,88.90
2022-12-14T02:08:18.616Z,88.99
2022-12-14T02:10:47.147Z,88.76
2022-12-14T02:13:33.312Z,88.16
2022-12-14T02:16:00.803Z,88.90
2022-12-14T02:18:31.163Z,89.20
2022-12-14T02:21:21.641Z,89.10
2022-12-14T02:24:22.715Z,89.20
2022-12-14T02:27:25.562Z,88.44
2022-12-14T02:30:06.666Z,88.92
2022-12-14T02:33:14.059Z,88.23
2022-12-14T02:35:53.655Z,88.51
2022-12-14T02:39:06.563Z,88.41
2022-12-14T02:41:46.064Z,88.24
2022-12-14T02:44:51.251Z,89.00
2022-12-14T02:47:28.753Z,88.70
2022-12-14T02:50:11.194Z,88.27
2022-12-14T02:52:53.290Z,88.78
2022-12-14T02:55:27.261Z,88.45
2022-12-14T02:58:02.142Z,89.04
2022-12-14T03:00:33.873Z,88.70
2022-12-14T03:03:02.367Z,88.82
2022-12-14T03:05:30.442Z,89.30
2022-12-14T03:08:03.881Z,88.32
2022-12-14T03:10:48.509Z,88.28
2022-12-14T03:13:45.631Z,89.00
2022-12-14T03:16:43.478Z,89.23
2022-12-14T03:19:35.671Z,89.30
2022-12-14T03:22:11.895Z,88.07
2022-12-14T03:24:50.176Z,88.87
2022-12-14T03:27:31.055Z,88.52
2022-12-14T03:30:04.653Z,88.01
2022-12-14T03:32:36.006Z,88.91
2022-12-14T03:35:10.983Z,87.79
2022-12-14T03:37:42.356Z,88.77
2022-12-14T03:40:13.720Z,87.79
2022-12-14T03:43:03.604Z,88.25
2022-12-14T03:46:11.686Z,88.23
2022-12-14T03:48:50.077Z,87.93
2022-12-14T03:51:23.321Z,88.06
2022-12-14T03:54:24.359Z,87.18
2022-12-14T03:57:02.943Z,87.64
2022-12-14T03:59:53.815Z,87.61
2022-12-14T04:02:40.598Z,88.06
2022-12-14T04:06:08.279Z,86.79
2022-12-14T04:08:49.109Z,87.65
2022-12-14T04:11:37.163Z,87.52
2022-12-14T04:14:36.115Z,87.17
2022-12-14T04:17:31.316Z,87.21
2022-12-14T04:20:10.171Z,86.64
2022-12-14T04:22:45.629Z,86.47
2022-12-14T04:25:42.464Z,87.31
2022-12-14T04:28:35.133Z,87.09
2022-12-14T04:31:08.545Z,86.38
2022-12-14T04:33:49.637Z,86.69
2022-12-14T04:36:25.762Z,86.42
2022-12-14T04:39:05.913Z,85.88
2022-12-14T04:41:38.781Z,86.69
2022-12-14T04:44:14.226Z,86.61
2022-12-14T04:46:42.652Z,86.98
2022-12-14T04:49:41.812Z,86.54
2022-12-14T04:52:19.374Z,86.82
2022-12-14T04:54:56.412Z,86.38
2022-12-14T04:57:48.558Z,86.24
2022-12-14T05:00:16.839Z,87.06
2022-12-14T05:03:14.861Z,86.51
2022-12-14T05:06:04.289Z,86.43
2022-12-14T05:08:54.033Z,86.61
2022-12-14T05:12:00.171Z,86.80
2022-12-14T05:14:39.956Z,86.94
2022-12-14T05:17:09.327Z,86.81
2022-12-14T05:19:38.118Z,86.34
2022-12-14T05:22:08.087Z,86.69
2022-12-14T05:24:35.644Z,86.88
2022-12-14T05:27:02.750Z,86.40
2022-12-14T05:29:29.758Z,86.27
2022-12-14T05:31:57.417Z,85.89
2022-12-14T05:34:25.096Z,86.49
2022-12-14T05:36:52.565Z,85.93
2022-12-14T05:39:19.791Z,86.43
2022-12-14T05:41:46.880Z,86.13
2022-12-14T05:44:14.020Z,86.45
2022-12-14T05:46:41.252Z,85.83
2022-12-14T05:49:08.459Z,86.28
2022-12-14T05:51:35.688Z,86.95
2022-12-14T05:54:02.898Z,86.60
2022-12-14T05:56:29.956Z,86.34
2022-12-14T05:58:57.720Z,86.38
2022-12-14T06:01:24.999Z,86.60
2022-12-14T06:03:53.402Z,86.50
2022-12-14T06:06:21.346Z,86.18
2022-12-14T06:08:48.500Z,86.74
2022-12-14T06:11:19.016Z,87.05
2022-12-14T06:13:47.051Z,86.12
2022-12-14T06:16:15.219Z,86.38
2022-12-14T06:18:57.336Z,87.01
2022-12-14T06:21:30.846Z,86.68
2022-12-14T06:23:58.862Z,86.77
2022-12-14T06:26:28.288Z,87.08
2022-12-14T06:28:56.336Z,86.53
2022-12-14T06:31:32.091Z,87.00
2022-12-14T06:34:02.226Z,87.34
2022-12-14T06:36:38.035Z,86.32
2022-12-14T06:39:15.735Z,86.83
2022-12-14T06:41:43.411Z,86.77
2022-12-14T06:44:14.561Z,87.09
2022-12-14T06:46:42.691Z,86.01
2022-12-14T06:49:14.648Z,86.92
2022-12-14T06:51:42.571Z,86.76
2022-12-14T06:54:13.446Z,87.12
2022-12-14T06:56:41.435Z,86.66
2022-12-14T06:59:09.411Z,85.89
2022-12-14T07:01:39.397Z,86.49
2022-12-14T07:04:09.193Z,85.98
2022-12-14T07:06:40.292Z,86.52
2022-12-14T07:09:12.951Z,86.66
2022-12-14T07:11:40.647Z,86.74
2022-12-14T07:14:07.736Z,86.26
2022-12-14T07:16:37.138Z,86.39
2022-12-14T07:19:04.950Z,86.41
2022-12-14T07:21:33.489Z,86.34
2022-12-14T07:24:01.535Z,86.31
2022-12-14T07:26:29.292Z,86.71
2022-12-14T07:29:00.697Z,86.65
2022-12-14T07:31:29.346Z,86.67
2022-12-14T07:33:59.601Z,86.79
2022-12-14T07:36:29.140Z,86.95
2022-12-14T07:38:57.031Z,86.62
2022-12-14T07:41:31.211Z,87.60
2022-12-14T07:44:01.206Z,87.00
2022-12-14T07:46:30.603Z,86.81
2022-12-14T07:48:59.461Z,87.36
2022-12-14T07:51:36.305Z,87.68
2022-12-14T07:54:05.646Z,86.53
2022-12-14T07:56:40.077Z,86.39
2022-12-14T07:59:09.834Z,86.96
2022-12-14T08:01:38.087Z,86.98
2022-12-14T08:04:07.750Z,88.07
2022-12-14T08:06:36.232Z,88.16
2022-12-14T08:09:04.551Z,86.74
2022-12-14T08:11:31.493Z,87.91
2022-12-14T08:14:21.574Z,86.77
2022-12-14T08:16:49.961Z,86.73
2022-12-14T08:19:19.160Z,87.08
2022-12-14T08:21:46.295Z,88.04
2022-12-14T08:24:15.129Z,87.64
2022-12-14T08:26:42.128Z,87.35
2022-12-14T08:29:15.491Z,87.25
2022-12-14T08:31:42.690Z,87.52
2022-12-14T08:34:09.840Z,87.46
2022-12-14T08:36:37.029Z,86.99
2022-12-14T08:39:10.369Z,87.03
2022-12-14T08:41:37.876Z,87.25
2022-12-14T08:44:05.704Z,87.30
2022-12-14T08:46:35.327Z,87.14
2022-12-14T08:49:02.452Z,87.03
2022-12-14T08:51:30.126Z,86.65
2022-12-14T08:53:58.136Z,86.65
2022-12-14T08:56:27.938Z,86.88
2022-12-14T08:58:57.389Z,86.96
2022-12-14T09:01:33.002Z,86.33
2022-12-14T09:04:07.858Z,86.80
2022-12-14T09:06:39.216Z,86.72
2022-12-14T09:09:15.231Z,86.48
2022-12-14T09:11:44.034Z,86.07
2022-12-14T09:14:11.454Z,87.04
2022-12-14T09:16:39.385Z,86.72
2022-12-14T09:19:06.500Z,86.35
2022-12-14T09:21:33.977Z,86.77
2022-12-14T09:24:01.507Z,85.94
2022-12-14T09:26:28.533Z,86.61
2022-12-14T09:28:56.834Z,85.56
2022-12-14T09:31:27.039Z,85.39
2022-12-14T09:33:55.202Z,85.49
2022-12-14T09:36:28.369Z,86.00
2022-12-14T09:38:57.762Z,84.93
2022-12-14T09:41:34.311Z,84.98
2022-12-14T09:44:54.509Z,84.58
2022-12-14T09:47:32.825Z,84.20
2022-12-14T09:50:07.502Z,84.07
2022-12-14T09:52:40.748Z,84.71
2022-12-14T09:55:35.095Z,84.34
2022-12-14T09:58:17.986Z,84.47
2022-12-14T10:01:02.394Z,83.81
2022-12-14T10:04:05.903Z,83.27
2022-12-14T10:07:05.035Z,84.39
2022-12-14T10:10:16.959Z,84.00
2022-12-14T10:12:59.138Z,84.67
2022-12-14T10:15:42.729Z,83.43
2022-12-14T10:18:57.447Z,82.84
2022-12-14T10:21:15.596Z,82.76
2022-12-14T10:23:57.692Z,82.30
2022-12-14T10:26:38.438Z,81.30
2022-12-14T10:29:15.708Z,81.46
2022-12-14T10:32:02.436Z,81.96
2022-12-14T10:34:32.485Z,81.28
2022-12-14T10:37:14.404Z,82.17
2022-12-14T10:39:44.356Z,81.55
2022-12-14T10:42:34.773Z,82.05
2022-12-14T10:45:41.287Z,80.40
2022-12-14T10:48:43.210Z,80.61
2022-12-14T10:51:22.608Z,80.96
2022-12-14T10:54:02.590Z,81.45
2022-12-14T10:56:34.941Z,81.14
2022-12-14T10:59:42.101Z,80.36
2022-12-14T11:02:21.485Z,79.20
2022-12-14T11:05:00.081Z,79.33
2022-12-14T11:07:39.795Z,80.09
2022-12-14T11:10:25.312Z,79.39
2022-12-14T11:13:02.603Z,78.33
2022-12-14T11:15:50.966Z,78.71
2022-12-14T11:18:18.033Z,78.60
2022-12-14T11:21:05.148Z,78.17
2022-12-14T11:23:46.000Z,78.52
2022-12-14T11:26:23.794Z,79.22
2022-12-14T11:28:55.081Z,78.98
2022-12-14T11:31:46.257Z,79.03
2022-12-14T11:34:42.669Z,78.11
2022-12-14T11:37:38.970Z,77.78
2022-12-14T11:40:07.871Z,78.23
2022-12-14T11:42:37.303Z,77.32
2022-12-14T11:45:25.922Z,78.58
2022-12-14T11:48:14.635Z,76.58
2022-12-14T11:50:43.328Z,77.45
2022-12-14T11:53:14.616Z,77.44
2022-12-14T11:55:50.820Z,77.71
2022-12-14T11:58:25.900Z,77.77
2022-12-14T12:01:00.408Z,77.19
2022-12-14T12:03:44.354Z,75.33
2022-12-14T12:06:15.275Z,75.53
2022-12-14T12:08:44.760Z,76.16
2022-12-14T12:11:19.751Z,76.53
2022-12-14T12:13:52.753Z,76.62
2022-12-14T12:16:26.097Z,76.78
2022-12-14T12:19:00.408Z,75.74
2022-12-14T12:21:35.303Z,76.04
2022-12-14T12:24:31.480Z,76.37
2022-12-14T12:27:02.642Z,76.84
2022-12-14T12:29:53.225Z,76.82
2022-12-14T12:32:49.884Z,75.96
2022-12-14T12:35:25.245Z,76.97
2022-12-14T12:38:02.129Z,76.07
2022-12-14T12:41:01.427Z,75.97
2022-12-14T12:43:50.197Z,75.81
2022-12-14T12:46:30.388Z,76.52
2022-12-14T12:49:07.384Z,77.18
2022-12-14T12:51:54.247Z,76.79
2022-12-14T12:54:56.281Z,76.73
2022-12-14T12:57:25.964Z,78.14
2022-12-14T12:59:56.677Z,77.31
2022-12-14T13:02:35.917Z,77.62
2022-12-14T13:05:45.134Z,76.93
2022-12-14T13:08:22.254Z,76.14
2022-12-14T13:13:43.546Z,76.52
2022-12-14T13:16:27.778Z,76.38
2022-12-14T13:21:51.963Z,75.75
2022-12-14T13:24:21.753Z,75.94
2022-12-14T13:27:17.229Z,76.25
2022-12-14T13:30:23.482Z,75.38
2022-12-14T13:33:18.251Z,75.86
2022-12-14T13:36:18.825Z,76.69
2022-12-14T13:39:00.690Z,77.16
2022-12-14T13:41:39.678Z,75.96
2022-12-14T13:44:37.245Z,76.04
2022-12-14T13:47:46.092Z,76.37
2022-12-14T13:50:43.322Z,77.14
2022-12-14T13:53:57.092Z,76.11
2022-12-14T13:56:33.457Z,76.89
2022-12-14T13:59:05.445Z,76.34
2022-12-14T14:01:48.355Z,76.71
2022-12-14T14:04:25.443Z,77.33
2022-12-14T14:06:56.126Z,76.67
2022-12-14T14:09:26.442Z,76.45
2022-12-14T14:12:17.780Z,76.76
2022-12-14T14:14:52.678Z,76.28
2022-12-14T14:17:41.654Z,76.13
2022-12-14T14:20:39.524Z,76.26
2022-12-14T14:23:15.870Z,76.83
2022-12-14T14:25:51.814Z,76.94
2022-12-14T14:28:23.253Z,76.61
2022-12-14T14:30:54.545Z,77.28
2022-12-14T14:33:55.459Z,76.53
2022-12-14T14:36:35.942Z,77.13
2022-12-14T14:39:24.524Z,77.40
2022-12-14T14:41:55.076Z,77.97
2022-12-14T14:44:27.620Z,77.55
2022-12-14T14:46:54.963Z,76.86
2022-12-14T14:49:38.814Z,77.75
2022-12-14T14:52:39.486Z,78.22
2022-12-14T14:55:52.121Z,77.68
2022-12-14T14:58:32.989Z,77.75
2022-12-14T15:01:09.648Z,78.23
2022-12-14T15:03:45.589Z,77.27
2022-12-14T15:06:24.917Z,78.36
2022-12-14T15:09:11.111Z,77.17
2022-12-14T15:11:48.798Z,77.16
2022-12-14T15:14:43.315Z,77.62
2022-12-14T15:17:30.575Z,77.31
2022-12-14T15:20:00.680Z,77.82
2022-12-14T15:22:35.701Z,77.63
2022-12-14T15:25:03.286Z,77.90
2022-12-14T15:27:36.532Z,77.86
2022-12-14T15:30:12.664Z,78.04
2022-12-14T15:32:49.791Z,78.57
2022-12-14T15:35:32.536Z,78.36
2022-12-14T15:38:29.988Z,78.52
2022-12-14T15:41:17.280Z,78.14
2022-12-14T15:43:59.391Z,78.08
2022-12-14T15:46:35.804Z,77.42
2022-12-14T15:49:23.186Z,77.32
2022-12-14T15:51:53.623Z,78.43
2022-12-14T15:54:24.657Z,77.62
2022-12-14T15:56:56.396Z,78.05
2022-12-14T15:59:33.898Z,78.19
2022-12-14T16:02:46.372Z,78.84
2022-12-14T16:05:21.701Z,78.47
2022-12-14T16:07:55.130Z,78.68
2022-12-14T16:10:33.065Z,78.45
2022-12-14T16:13:16.097Z,78.72
2022-12-14T16:15:43.334Z,79.06
2022-12-14T16:18:14.704Z,79.22
2022-12-14T16:20:45.883Z,78.59
2022-12-14T16:23:16.221Z,77.99
2022-12-14T16:26:15.698Z,78.77
2022-12-14T16:28:42.665Z,79.01
2022-12-14T16:31:24.450Z,79.13
2022-12-14T16:34:16.590Z,79.45
2022-12-14T16:36:56.245Z,79.58
2022-12-14T16:39:39.029Z,78.12
2022-12-14T16:42:26.601Z,79.18
2022-12-14T16:44:54.949Z,79.53
2022-12-14T16:47:48.733Z,79.04
2022-12-14T16:50:55.677Z,79.39
2022-12-14T16:53:22.111Z,79.07
2022-12-14T16:56:05.001Z,79.64
2022-12-14T16:58:32.929Z,79.75
2022-12-14T17:01:06.027Z,80.23
2022-12-14T17:03:34.207Z,79.60
2022-12-14T17:06:06.825Z,79.38
2022-12-14T17:08:34.293Z,79.18
2022-12-14T17:11:02.280Z,79.28
2022-12-14T17:13:29.833Z,79.32
2022-12-14T17:16:00.584Z,79.51
2022-12-14T17:18:38.491Z,79.66
2022-12-14T17:21:10.215Z,79.21
2022-12-14T17:23:40.208Z,79.59
2022-12-14T17:26:14.669Z,79.79
2022-12-14T17:28:41.662Z,80.50
2022-12-14T17:31:10.689Z,80.35
2022-12-14T17:33:39.155Z,79.52
2022-12-14T17:36:07.087Z,79.83
2022-12-14T17:38:34.224Z,79.75
2022-12-14T17:41:01.190Z,79.86
2022-12-14T17:43:28.715Z,79.64
2022-12-14T17:45:57.181Z,79.13
2022-12-14T17:48:24.365Z,79.01
2022-12-14T17:50:51.381Z,79.79
2022-12-14T17:53:30.097Z,79.76
2022-12-14T17:55:58.714Z,79.70
2022-12-14T17:58:25.825Z,80.06
2022-12-14T18:01:03.352Z,79.96
2022-12-14T18:03:36.351Z,79.45
2022-12-14T18:06:04.638Z,79.40
2022-12-14T18:08:31.624Z,79.57
2022-12-14T18:11:10.166Z,79.85
2022-12-14T18:13:38.940Z,80.13
2022-12-14T18:16:06.792Z,79.85
2022-12-14T18:18:33.754Z,79.31
2022-12-14T18:21:03.741Z,79.48
2022-12-14T18:23:32.245Z,79.73
2022-12-14T18:26:00.319Z,79.91
2022-12-14T18:28:27.412Z,79.91
2022-12-14T18:31:01.819Z,80.16
2022-12-14T18:33:29.967Z,80.02
2022-12-14T18:35:57.734Z,80.26
2022-12-14T18:38:26.305Z,80.44
2022-12-14T18:40:56.292Z,80.36
2022-12-14T18:43:28.080Z,79.32
2022-12-14T18:45:56.393Z,79.92
2022-12-14T18:48:24.978Z,79.28
2022-12-14T18:50:54.468Z,79.18
2022-12-14T18:53:23.955Z,79.36
2022-12-14T18:55:51.619Z,80.25
2022-12-14T18:58:26.669Z,79.13
2022-12-14T19:00:57.657Z,80.26
2022-12-14T19:03:25.691Z,80.35
2022-12-14T19:06:26.746Z,80.05
2022-12-14T19:08:50.021Z,80.03
2022-12-14T19:11:32.459Z,80.58
2022-12-14T19:14:01.058Z,79.84
2022-12-14T19:16:29.171Z,80.71
2022-12-14T19:18:56.841Z,80.51
2022-12-14T19:21:26.170Z,79.95
2022-12-14T19:23:53.351Z,79.90
2022-12-14T19:26:21.140Z,79.21
2022-12-14T19:28:48.198Z,79.91
2022-12-14T19:31:15.202Z,79.21
2022-12-14T19:33:42.265Z,78.93
2022-12-14T19:36:10.029Z,80.27
2022-12-14T19:38:37.394Z,80.76
2022-12-14T19:41:08.750Z,80.56
2022-12-14T19:43:36.127Z,80.06
2022-12-14T19:46:12.679Z,79.99
2022-12-14T19:48:40.493Z,80.82
2022-12-14T19:51:11.079Z,80.65
2022-12-14T19:53:39.997Z,80.45
2022-12-14T19:56:07.674Z,80.39
2022-12-14T19:58:36.350Z,80.62
2022-12-14T20:01:12.820Z,80.06
2022-12-14T20:03:40.362Z,80.51
2022-12-14T20:06:08.591Z,80.22
2022-12-14T20:08:36.747Z,80.71
2022-12-14T20:11:09.881Z,79.74
2022-12-14T20:13:37.881Z,79.73
2022-12-14T20:16:06.056Z,80.44
2022-12-14T20:18:33.930Z,80.90
2022-12-14T20:21:04.098Z,80.48
2022-12-14T20:23:33.499Z,80.10
2022-12-14T20:26:16.720Z,81.00
2022-12-14T20:28:46.498Z,80.89
2022-12-14T20:31:16.535Z,80.53
2022-12-14T20:33:44.777Z,80.74
2022-12-14T20:36:12.719Z,81.09
2022-12-14T20:38:39.869Z,80.42
2022-12-14T20:41:11.043Z,80.48
2022-12-14T20:43:41.711Z,80.54
2022-12-14T20:46:37.674Z,80.72
2022-12-14T20:49:17.473Z,80.65
2022-12-14T20:51:46.734Z,81.13
2022-12-14T20:54:17.749Z,79.45
2022-12-14T20:56:49.570Z,80.30
2022-12-14T20:59:17.668Z,80.05
2022-12-14T21:01:51.741Z,80.47
2022-12-14T21:04:22.433Z,80.42
2022-12-14T21:06:49.350Z,80.74
2022-12-14T21:09:16.375Z,80.73
2022-12-14T21:12:08.727Z,80.90
2022-12-14T21:14:42.643Z,80.68
2022-12-14T21:17:10.191Z,80.82
2022-12-14T21:19:37.248Z,80.75
2022-12-14T21:22:06.532Z,80.97
2022-12-14T21:27:26.805Z,81.21
2022-12-14T21:29:54.493Z,80.60
2022-12-14T21:32:23.157Z,81.00
2022-12-14T21:34:51.240Z,80.87
2022-12-14T21:37:18.946Z,80.81
2022-12-14T21:39:54.544Z,81.04
2022-12-14T21:42:25.883Z,80.47
2022-12-14T21:44:54.452Z,81.18
2022-12-14T21:47:26.056Z,80.49
2022-12-14T21:49:54.236Z,81.84
2022-12-14T21:52:25.034Z,81.79
2022-12-14T21:54:52.031Z,81.15
2022-12-14T21:57:42.649Z,81.94
2022-12-14T22:00:11.241Z,81.67
2022-12-14T22:02:42.383Z,81.55
2022-12-14T22:05:10.823Z,80.94
2022-12-14T22:07:37.977Z,81.86
2022-12-14T22:10:06.091Z,80.63
2022-12-14T22:12:33.679Z,80.98
2022-12-14T22:15:01.510Z,81.13
2022-12-14T22:17:28.424Z,80.72
2022-12-14T22:19:55.587Z,81.17
2022-12-14T22:22:23.464Z,80.63
2022-12-14T22:24:51.437Z,81.56
2022-12-14T22:27:19.699Z,81.77
2022-12-14T22:29:47.050Z,80.68
2022-12-14T22:32:14.977Z,80.87
2022-12-14T22:34:42.699Z,81.06
2022-12-14T22:37:10.116Z,81.77
2022-12-14T22:39:37.105Z,79.91
2022-12-14T22:42:04.335Z,80.47
2022-12-14T22:44:31.426Z,79.99
2022-12-14T22:46:58.534Z,80.79
2022-12-14T22:49:25.477Z,81.19
2022-12-14T22:51:52.473Z,80.98
2022-12-14T22:54:27.961Z,81.09
2022-12-14T22:57:02.396Z,80.66
2022-12-14T22:59:48.565Z,80.92
2022-12-14T23:02:15.910Z,80.82
2022-12-14T23:04:43.068Z,80.41
2022-12-14T23:07:10.142Z,80.88
2022-12-14T23:09:55.795Z,81.26
2022-12-14T23:12:41.794Z,80.85
2022-12-14T23:15:28.260Z,81.08
2022-12-14T23:18:20.380Z,80.98
2022-12-14T23:21:06.249Z,81.11
2022-12-14T23:23:51.870Z,81.51
2022-12-14T23:26:37.554Z,80.89
2022-12-14T23:29:23.277Z,81.37
2022-12-14T23:32:09.302Z,81.06
2022-12-14T23:34:54.906Z,82.11
2022-12-14T23:37:40.718Z,81.63
2022-12-14T23:40:27.572Z,81.50
2022-12-14T23:43:13.366Z,81.94
2022-12-14T23:45:58.950Z,82.10
2022-12-14T23:48:44.496Z,82.94
2022-12-14T23:51:29.785Z,81.33
2022-12-14T23:54:15.258Z,82.04
2022-12-14T23:57:00.737Z,81.20
2022-12-14T23:59:49.519Z,82.37
